Time;durP1;ratioP1;P1;durP2;ratioP2;P2;SDS_P1;SDS_P2;PMS_P1;PMS_P2;Temp;Humidity;BMP_temperature;BMP_pressure;BME280_temperature;BME280_humidity;BME280_pressure;Samples;Min_cycle;Max_cycle;Signal;HPM_P1;HPM_P2
2022/07/14 00:02:11;;;;;;;10.57;2.80;;;13.40;99.50;;;;;;5008512;28;20827;-79
2022/07/14 00:04:39;;;;;;;9.80;2.67;;;13.30;99.70;;;;;;4991125;28;20232;-80
2022/07/14 00:07:05;;;;;;;12.40;2.50;;;13.30;99.80;;;;;;5006090;28;20789;-79
2022/07/14 00:09:32;;;;;;;13.80;2.70;;;13.30;99.70;;;;;;5000662;28;20230;-78
2022/07/14 00:11:59;;;;;;;9.20;2.50;;;13.30;99.90;;;;;;5009286;28;20238;-79
2022/07/14 00:14:25;;;;;;;11.63;2.00;;;13.20;99.90;;;;;;5013733;28;20379;-79
2022/07/14 00:16:52;;;;;;;9.90;2.37;;;13.20;99.90;;;;;;4995473;28;20250;-78
2022/07/14 00:19:19;;;;;;;7.60;2.37;;;13.20;99.90;;;;;;5020100;28;20247;-79
2022/07/14 00:21:47;;;;;;;11.90;2.53;;;13.20;99.90;;;;;;5012833;28;20232;-79
2022/07/14 00:24:14;;;;;;;12.70;2.60;;;13.10;99.90;;;;;;5025337;28;20240;-78
2022/07/14 00:26:41;;;;;;;10.60;2.67;;;13.10;99.90;;;;;;5010427;28;20250;-78
2022/07/14 00:29:08;;;;;;;10.47;2.60;;;13.10;99.90;;;;;;5012327;28;20878;-79
2022/07/14 00:31:36;;;;;;;7.90;2.20;;;13.10;99.90;;;;;;5011862;28;20222;-79
2022/07/14 00:34:03;;;;;;;7.63;2.40;;;13.10;99.90;;;;;;5012133;28;20226;-79
2022/07/14 00:36:30;;;;;;;8.13;2.50;;;13.00;99.90;;;;;;4986207;28;20730;-79
2022/07/14 00:38:58;;;;;;;7.07;2.20;;;13.00;99.90;;;;;;5003479;28;20404;-81
2022/07/14 00:41:25;;;;;;;9.23;2.07;;;13.00;99.90;;;;;;5016713;28;20226;-79
2022/07/14 00:43:52;;;;;;;9.17;2.20;;;13.00;99.90;;;;;;5007550;28;20259;-78
2022/07/14 00:46:18;;;;;;;13.10;3.00;;;13.00;99.90;;;;;;4986118;28;20239;-79
2022/07/14 00:48:45;;;;;;;7.10;2.23;;;13.00;99.90;;;;;;4990565;28;20247;-78
2022/07/14 00:51:12;;;;;;;11.37;2.37;;;13.00;99.90;;;;;;4986713;28;20241;-78
2022/07/14 00:53:38;;;;;;;11.90;2.43;;;12.90;99.90;;;;;;4989528;28;20235;-79
2022/07/14 00:56:07;;;;;;;8.10;2.40;;;12.90;99.90;;;;;;4992715;28;20300;-79
2022/07/14 00:58:35;;;;;;;9.37;2.57;;;12.90;99.90;;;;;;5008853;28;20240;-78
2022/07/14 01:01:01;;;;;;;10.00;2.30;;;12.90;99.90;;;;;;5032075;28;20233;-79
2022/07/14 01:03:29;;;;;;;9.60;2.53;;;12.90;99.90;;;;;;4991242;28;20262;-79
2022/07/14 01:05:56;;;;;;;11.23;2.10;;;12.80;99.90;;;;;;4995376;28;20222;-79
2022/07/14 01:08:22;;;;;;;10.80;2.40;;;12.80;99.90;;;;;;4993381;28;20311;-80
2022/07/14 01:10:49;;;;;;;7.93;1.80;;;12.80;99.90;;;;;;4993326;28;20713;-80
2022/07/14 01:13:18;;;;;;;11.50;2.57;;;12.80;99.90;;;;;;4993482;28;20559;-79
2022/07/14 01:15:45;;;;;;;8.50;2.23;;;12.70;99.90;;;;;;5012517;28;20225;-79
2022/07/14 01:18:13;;;;;;;6.23;2.23;;;12.70;99.90;;;;;;5008299;28;20232;-80
2022/07/14 01:20:41;;;;;;;10.93;2.60;;;12.70;99.90;;;;;;4985382;28;20228;-80
2022/07/14 01:23:12;;;;;;;13.47;2.80;;;12.70;99.90;;;;;;4999896;28;20230;-80
2022/07/14 01:25:38;;;;;;;8.97;2.17;;;12.60;99.90;;;;;;4996400;28;20339;-81
2022/07/14 01:28:05;;;;;;;8.33;2.47;;;12.60;99.90;;;;;;4991233;28;20236;-80
2022/07/14 01:30:33;;;;;;;8.83;2.33;;;12.60;99.90;;;;;;4988058;28;20223;-79
2022/07/14 01:32:59;;;;;;;14.30;2.70;;;12.60;99.90;;;;;;5010741;28;20311;-78
2022/07/14 01:35:26;;;;;;;10.57;2.40;;;12.60;99.90;;;;;;4989407;28;20267;-80
2022/07/14 01:37:53;;;;;;;8.77;2.10;;;12.60;99.90;;;;;;5005725;28;20216;-79
2022/07/14 01:40:21;;;;;;;6.20;1.97;;;12.50;99.90;;;;;;5009370;28;20308;-80
2022/07/14 01:42:48;;;;;;;8.63;2.63;;;12.50;99.90;;;;;;5010319;28;20348;-80
2022/07/14 01:45:14;;;;;;;6.00;2.00;;;12.50;99.90;;;;;;5009446;28;20327;-79
2022/07/14 01:47:41;;;;;;;10.67;2.70;;;12.50;99.90;;;;;;4988808;28;20322;-79
2022/07/14 01:50:09;;;;;;;7.50;2.07;;;12.40;99.90;;;;;;4989408;28;20690;-79
2022/07/14 01:52:39;;;;;;;12.07;2.60;;;12.40;99.90;;;;;;4992498;28;20224;-79
2022/07/14 01:55:08;;;;;;;7.60;1.90;;;12.30;99.90;;;;;;4997155;28;20283;-79
2022/07/14 01:57:36;;;;;;;11.60;3.10;;;12.30;99.90;;;;;;5007284;28;20246;-78
2022/07/14 02:00:06;;;;;;;10.43;2.43;;;12.30;99.90;;;;;;5006744;28;22172;-78
2022/07/14 02:02:33;;;;;;;8.97;2.10;;;12.20;99.90;;;;;;5009860;28;20744;-78
2022/07/14 02:05:01;;;;;;;6.30;1.97;;;12.20;99.90;;;;;;4997286;28;20240;-79
2022/07/14 02:07:28;;;;;;;9.13;2.13;;;12.20;99.90;;;;;;4993932;28;20230;-80
2022/07/14 02:12:59;;;;;;;9.87;2.43;;;12.10;99.90;;;;;;4992604;28;20299;-81
2022/07/14 02:15:26;;;;;;;9.23;2.50;;;12.00;99.90;;;;;;4991461;28;20253;-80
2022/07/14 02:17:53;;;;;;;11.00;2.50;;;12.00;99.90;;;;;;4990983;28;20246;-81
2022/07/14 02:20:20;;;;;;;8.67;2.53;;;12.00;99.90;;;;;;4994151;28;20292;-80
2022/07/14 02:22:48;;;;;;;8.87;2.77;;;11.90;99.90;;;;;;5011959;28;20250;-79
2022/07/14 02:25:14;;;;;;;7.33;2.40;;;11.90;99.90;;;;;;4991992;28;20230;-78
2022/07/14 02:27:41;;;;;;;8.73;1.93;;;11.90;99.90;;;;;;5004734;28;20261;-77
2022/07/14 02:30:10;;;;;;;7.57;2.20;;;11.90;99.90;;;;;;5005051;28;20222;-77
2022/07/14 02:32:38;;;;;;;9.73;2.43;;;11.80;99.90;;;;;;4991330;28;20575;-78
2022/07/14 02:35:06;;;;;;;9.77;2.60;;;11.80;99.90;;;;;;5008255;28;20286;-79
2022/07/14 02:37:33;;;;;;;6.90;2.37;;;11.80;99.90;;;;;;5003080;28;20230;-78
2022/07/14 02:40:00;;;;;;;11.23;2.37;;;11.70;99.90;;;;;;5006551;28;20298;-79
2022/07/14 02:42:27;;;;;;;6.40;2.50;;;11.70;99.90;;;;;;4994070;28;20245;-79
2022/07/14 02:44:53;;;;;;;7.30;2.10;;;11.70;99.90;;;;;;4988599;28;20361;-78
2022/07/14 02:47:22;;;;;;;9.17;2.33;;;11.60;99.90;;;;;;5006867;28;20217;-78
2022/07/14 02:49:49;;;;;;;7.03;2.60;;;11.60;99.90;;;;;;5006343;28;20233;-78
2022/07/14 02:52:16;;;;;;;6.47;2.03;;;11.60;99.90;;;;;;5010187;28;20221;-78
2022/07/14 02:54:46;;;;;;;8.10;2.57;;;11.50;99.90;;;;;;5012649;28;20392;-78
2022/07/14 02:57:12;;;;;;;6.17;2.03;;;11.50;99.90;;;;;;4999119;28;20386;-79
2022/07/14 02:59:41;;;;;;;6.83;2.07;;;11.50;99.90;;;;;;5018678;28;20230;-79
2022/07/14 03:02:08;;;;;;;8.63;2.10;;;11.40;99.90;;;;;;4995334;28;21011;-80
2022/07/14 03:04:37;;;;;;;6.60;2.40;;;11.40;99.90;;;;;;4995463;28;20232;-79
2022/07/14 03:07:03;;;;;;;8.57;2.13;;;11.40;99.90;;;;;;4993064;28;20309;-78
2022/07/14 03:09:31;;;;;;;4.93;1.90;;;11.40;99.90;;;;;;4995048;28;20342;-79
2022/07/14 03:11:58;;;;;;;4.60;1.77;;;11.40;99.90;;;;;;4992915;28;20241;-79
2022/07/14 03:14:25;;;;;;;6.93;2.17;;;11.30;99.90;;;;;;4993975;28;20230;-79
2022/07/14 03:16:52;;;;;;;6.77;2.23;;;11.30;99.90;;;;;;4993317;28;20259;-79
2022/07/14 03:19:18;;;;;;;6.33;2.07;;;11.30;99.90;;;;;;5008223;28;20231;-80
2022/07/14 03:21:47;;;;;;;10.57;2.53;;;11.30;99.90;;;;;;4995263;28;20213;-79
2022/07/14 03:24:16;;;;;;;9.17;2.77;;;11.30;99.90;;;;;;4989514;28;20229;-80
2022/07/14 03:26:43;;;;;;;5.87;1.80;;;11.30;99.90;;;;;;5000419;28;20733;-78
2022/07/14 03:29:10;;;;;;;6.17;1.87;;;11.20;99.90;;;;;;5010983;28;20730;-79
2022/07/14 03:31:37;;;;;;;7.37;2.07;;;11.20;99.90;;;;;;4995275;28;20235;-79
2022/07/14 03:34:07;;;;;;;5.97;1.77;;;11.20;99.90;;;;;;4995828;28;20239;-81
2022/07/14 03:36:36;;;;;;;6.73;2.00;;;11.20;99.90;;;;;;4996336;28;20230;-80
2022/07/14 03:39:05;;;;;;;7.30;2.07;;;11.20;99.90;;;;;;4995494;28;20272;-79
2022/07/14 03:41:33;;;;;;;10.43;2.50;;;11.20;99.90;;;;;;4996503;28;20638;-80
2022/07/14 03:44:00;;;;;;;8.67;2.17;;;11.20;99.90;;;;;;5007639;28;20249;-80
2022/07/14 03:46:27;;;;;;;11.70;2.83;;;11.10;99.90;;;;;;5008601;28;20221;-80
2022/07/14 03:49:02;;;;;;;9.83;2.57;;;11.20;99.90;;;;;;4995077;28;20222;-79
2022/07/14 03:51:29;;;;;;;4.97;2.33;;;11.20;99.90;;;;;;4995727;28;20250;-80
2022/07/14 03:53:56;;;;;;;11.10;2.30;;;11.20;99.90;;;;;;4997115;28;20283;-79
2022/07/14 03:56:24;;;;;;;9.27;2.60;;;11.20;99.90;;;;;;4995270;28;20218;-80
2022/07/14 03:58:51;;;;;;;7.77;2.20;;;11.30;99.90;;;;;;5015800;28;20327;-81
2022/07/14 04:01:21;;;;;;;4.57;2.47;;;11.30;99.90;;;;;;4990983;28;20287;-80
2022/07/14 04:03:52;;;;;;;6.87;2.30;;;11.30;99.90;;;;;;5005152;28;20717;-80
2022/07/14 04:06:19;;;;;;;9.70;2.50;;;11.30;99.90;;;;;;4994146;28;20695;-79
2022/07/14 04:08:46;;;;;;;7.83;2.30;;;11.40;99.90;;;;;;4998327;28;20342;-79
2022/07/14 04:11:13;;;;;;;7.73;2.37;;;11.40;99.90;;;;;;4994692;28;20238;-79
2022/07/14 04:13:41;;;;;;;6.53;2.00;;;11.50;99.90;;;;;;4993955;28;20306;-80
2022/07/14 04:16:08;;;;;;;5.80;2.20;;;11.50;99.90;;;;;;5008544;28;20640;-79
2022/07/14 04:18:40;;;;;;;7.50;2.10;;;11.50;99.90;;;;;;4998013;28;20712;-79
2022/07/14 04:21:09;;;;;;;6.37;2.10;;;11.50;99.90;;;;;;4995268;28;20308;-80
2022/07/14 04:23:36;;;;;;;6.80;2.60;;;11.50;99.90;;;;;;5009888;28;20223;-79
2022/07/14 04:26:03;;;;;;;7.97;2.23;;;11.60;99.90;;;;;;4999488;28;20498;-79
2022/07/14 04:28:30;;;;;;;7.87;2.20;;;11.60;99.90;;;;;;5011665;28;20747;-80
2022/07/14 04:30:59;;;;;;;6.60;2.43;;;11.60;99.90;;;;;;4989608;28;20239;-80
2022/07/14 04:33:25;;;;;;;10.10;2.27;;;11.70;99.90;;;;;;4991380;28;20239;-82
2022/07/14 04:35:53;;;;;;;9.73;2.90;;;11.70;99.90;;;;;;4991444;28;20227;-84
2022/07/14 04:38:21;;;;;;;12.03;2.73;;;11.60;99.90;;;;;;5025956;28;20688;-78
2022/07/14 04:40:52;;;;;;;5.77;2.40;;;11.70;99.90;;;;;;4995176;28;20232;-81
2022/07/14 04:43:20;;;;;;;8.93;2.20;;;11.70;99.90;;;;;;4986696;28;20245;-79
2022/07/14 04:45:50;;;;;;;6.60;2.33;;;11.80;99.90;;;;;;4988110;28;20805;-78
2022/07/14 04:48:18;;;;;;;5.83;2.07;;;11.90;99.90;;;;;;4986129;28;20224;-80
2022/07/14 04:53:29;;;;;;;10.10;2.60;;;12.00;99.90;;;;;;5019076;28;20224;-79
2022/07/14 04:56:16;;;;;;;9.13;2.40;;;12.00;99.90;;;;;;4997036;28;20697;-79
2022/07/14 04:59:06;;;;;;;9.43;2.60;;;12.10;99.90;;;;;;5002068;28;20229;-80
2022/07/14 05:01:33;;;;;;;10.43;2.53;;;12.10;99.90;;;;;;5013411;28;20220;-80
2022/07/14 05:04:01;;;;;;;7.07;2.00;;;12.20;99.90;;;;;;4985229;28;20254;-79
2022/07/14 05:06:28;;;;;;;10.27;2.37;;;12.30;99.90;;;;;;4984679;28;20302;-79
2022/07/14 05:08:55;;;;;;;9.03;1.87;;;12.30;99.90;;;;;;4988293;28;20718;-80
2022/07/14 05:11:22;;;;;;;14.30;2.37;;;12.40;99.90;;;;;;4990257;28;20279;-81
2022/07/14 05:13:53;;;;;;;9.90;2.27;;;12.50;99.90;;;;;;4993290;28;20298;-80
2022/07/14 05:16:20;;;;;;;10.80;2.23;;;12.50;99.90;;;;;;4989746;28;20622;-82
2022/07/14 05:18:47;;;;;;;7.30;1.80;;;12.50;99.90;;;;;;4992774;28;20221;-81
2022/07/14 05:21:15;;;;;;;3.80;1.67;;;12.60;99.90;;;;;;4990663;28;20368;-81
2022/07/14 05:23:43;;;;;;;6.40;2.10;;;12.70;99.90;;;;;;5003018;28;20520;-83
2022/07/14 05:26:11;;;;;;;9.00;1.87;;;12.70;99.90;;;;;;4986302;28;20221;-84
2022/07/14 05:28:39;;;;;;;7.17;2.17;;;12.80;99.90;;;;;;4988478;28;20228;-83
2022/07/14 05:31:06;;;;;;;6.03;1.30;;;12.80;99.90;;;;;;4989355;28;20715;-84
2022/07/14 05:33:39;;;;;;;7.07;1.37;;;12.90;99.90;;;;;;5021008;28;20237;-83
2022/07/14 05:36:07;;;;;;;4.93;1.13;;;13.00;99.90;;;;;;5014114;28;20223;-83
2022/07/14 05:38:35;;;;;;;5.50;1.20;;;13.00;99.90;;;;;;4996700;28;20304;-84
2022/07/14 05:41:03;;;;;;;7.30;1.40;;;13.10;99.90;;;;;;5007458;28;20301;-84
2022/07/14 05:43:31;;;;;;;5.23;1.50;;;13.20;99.90;;;;;;5009493;28;20692;-83
2022/07/14 05:46:03;;;;;;;6.00;1.60;;;13.20;99.90;;;;;;4988554;28;20215;-83
2022/07/14 05:48:31;;;;;;;6.73;1.53;;;13.30;99.90;;;;;;4993713;28;20307;-83
2022/07/14 05:51:06;;;;;;;8.43;1.50;;;13.30;99.90;;;;;;4992245;28;20217;-83
2022/07/14 05:53:35;;;;;;;3.90;1.43;;;13.40;99.90;;;;;;5000565;28;20226;-83
2022/07/14 05:56:03;;;;;;;6.63;1.20;;;13.50;99.90;;;;;;4991593;28;21905;-83
2022/07/14 05:58:29;;;;;;;4.47;1.67;;;13.50;99.90;;;;;;4992603;28;20250;-83
2022/07/14 06:00:56;;;;;;;8.00;1.60;;;13.60;99.90;;;;;;5009754;28;20231;-83
2022/07/14 06:03:24;;;;;;;7.40;1.67;;;13.60;99.90;;;;;;5018951;28;20261;-84
2022/07/14 06:05:51;;;;;;;6.93;1.47;;;13.70;99.90;;;;;;4992450;28;20614;-83
2022/07/14 06:08:18;;;;;;;3.27;1.10;;;13.70;99.90;;;;;;4989754;28;20228;-83
2022/07/14 06:10:46;;;;;;;4.23;1.20;;;13.80;99.90;;;;;;5006442;28;20230;-83
2022/07/14 06:13:14;;;;;;;5.60;1.50;;;13.80;99.90;;;;;;4995851;28;20316;-83
2022/07/14 06:15:41;;;;;;;5.60;1.43;;;13.90;99.90;;;;;;4990357;28;20697;-83
2022/07/14 06:18:10;;;;;;;5.30;1.60;;;13.90;99.90;;;;;;5008620;28;20499;-83
2022/07/14 06:20:37;;;;;;;4.40;1.30;;;14.00;99.90;;;;;;4989191;28;20304;-84
2022/07/14 06:23:03;;;;;;;4.93;1.17;;;14.00;99.90;;;;;;4990761;28;20242;-83
2022/07/14 06:25:30;;;;;;;6.33;1.30;;;14.10;99.90;;;;;;4990590;28;20239;-83
2022/07/14 06:27:59;;;;;;;6.30;1.40;;;14.20;99.90;;;;;;5013129;28;20270;-83
2022/07/14 06:30:26;;;;;;;5.20;1.30;;;14.20;99.90;;;;;;4983238;28;20220;-83
2022/07/14 06:32:52;;;;;;;2.73;1.00;;;14.30;99.90;;;;;;4995059;28;20227;-83
2022/07/14 06:35:19;;;;;;;3.70;1.00;;;14.40;99.90;;;;;;5009978;28;20220;-83
2022/07/14 06:37:46;;;;;;;4.03;0.87;;;14.50;99.90;;;;;;4994082;28;20276;-83
2022/07/14 06:40:13;;;;;;;3.73;1.33;;;14.60;99.90;;;;;;5010917;28;20232;-84
2022/07/14 06:42:44;;;;;;;7.03;1.57;;;14.70;99.90;;;;;;5013033;28;20231;-84
2022/07/14 06:45:25;;;;;;;3.67;0.80;;;14.90;99.90;;;;;;5022468;28;20236;-84
2022/07/14 06:47:55;;;;;;;4.33;1.20;;;15.10;99.90;;;;;;4996670;28;20229;-83
2022/07/14 06:50:22;;;;;;;1.87;0.67;;;15.30;99.90;;;;;;5009123;28;20247;-83
2022/07/14 06:52:49;;;;;;;4.70;1.03;;;15.50;99.90;;;;;;5011642;28;20227;-84
2022/07/14 06:55:16;;;;;;;5.40;1.30;;;15.70;99.90;;;;;;4993166;28;20759;-81
2022/07/14 06:57:43;;;;;;;2.87;0.80;;;15.80;99.70;;;;;;5015680;28;20278;-82
2022/07/14 07:00:11;;;;;;;4.23;1.00;;;16.00;99.10;;;;;;4988122;28;20736;-81
2022/07/14 07:02:40;;;;;;;2.73;1.17;;;16.10;98.90;;;;;;5014812;28;20231;-83
2022/07/14 07:07:56;;;;;;;3.70;0.90;;;16.50;98.80;;;;;;5015116;28;20217;-83
2022/07/14 07:10:23;;;;;;;2.87;1.00;;;16.80;98.80;;;;;;4995575;28;20594;-83
2022/07/14 07:12:49;;;;;;;2.93;0.80;;;17.10;98.40;;;;;;5017257;28;20236;-82
2022/07/14 07:15:16;;;;;;;1.90;0.80;;;17.50;97.20;;;;;;5007617;28;20239;-82
2022/07/14 07:17:44;;;;;;;2.70;0.80;;;17.70;96.40;;;;;;5008479;28;20324;-83
2022/07/14 07:20:11;;;;;;;4.43;0.90;;;18.00;96.20;;;;;;4989667;28;20305;-82
2022/07/14 07:22:38;;;;;;;3.63;0.80;;;18.20;95.70;;;;;;5014913;28;20252;-82
2022/07/14 07:25:06;;;;;;;3.72;0.95;;;18.40;95.60;;;;;;4988965;28;20713;-83
2022/07/14 07:27:33;;;;;;;3.53;0.70;;;18.60;95.10;;;;;;5016886;28;20308;-83
2022/07/14 07:30:01;;;;;;;3.28;0.75;;;18.90;95.00;;;;;;4990696;28;20232;-83
2022/07/14 07:32:27;;;;;;;3.75;0.95;;;19.30;94.70;;;;;;4996536;28;20234;-82
2022/07/14 07:34:56;;;;;;;3.78;0.77;;;19.80;93.90;;;;;;5012583;28;20223;-81
2022/07/14 07:37:23;;;;;;;4.05;0.88;;;20.40;93.70;;;;;;4997532;28;20329;-82
2022/07/14 07:39:49;;;;;;;3.00;0.60;;;21.10;93.40;;;;;;4995382;28;20231;-82
2022/07/14 07:42:16;;;;;;;2.90;0.75;;;21.70;91.90;;;;;;4995288;28;20225;-81
2022/07/14 07:44:43;;;;;;;3.00;0.90;;;22.00;90.20;;;;;;5012573;28;20237;-81
2022/07/14 07:47:09;;;;;;;3.60;0.80;;;22.10;88.20;;;;;;4993745;28;20319;-82
2022/07/14 07:49:36;;;;;;;1.60;0.65;;;22.00;86.60;;;;;;5008013;28;20312;-83
2022/07/14 07:52:05;;;;;;;4.30;0.80;;;21.80;86.60;;;;;;4996026;28;20225;-83
2022/07/14 07:54:31;;;;;;;2.78;0.70;;;21.70;86.20;;;;;;5010623;28;20359;-83
2022/07/14 07:56:59;;;;;;;4.32;1.10;;;21.80;86.80;;;;;;4990497;28;20249;-83
2022/07/14 07:59:27;;;;;;;2.53;0.70;;;22.20;87.10;;;;;;4995655;28;20225;-82
2022/07/14 08:01:54;;;;;;;2.60;0.70;;;22.70;86.60;;;;;;5011378;28;20237;-82
2022/07/14 08:04:22;;;;;;;1.70;0.70;;;23.30;86.30;;;;;;4997397;28;20229;-82
2022/07/14 08:06:48;;;;;;;2.60;0.75;;;24.00;83.20;;;;;;4991816;28;20658;-83
2022/07/14 08:09:16;;;;;;;2.72;0.77;;;24.60;81.70;;;;;;5009581;28;20240;-82
2022/07/14 08:11:43;;;;;;;2.88;0.60;;;24.90;78.60;;;;;;4992689;28;20233;-83
2022/07/14 08:16:51;;;;;;;2.55;0.77;;;25.00;76.40;;;;;;4990090;28;20229;-82
2022/07/14 08:19:18;;;;;;;1.77;0.63;;;25.00;76.20;;;;;;4986435;28;20615;-83
2022/07/14 08:21:45;;;;;;;2.40;0.60;;;25.10;76.80;;;;;;5010705;28;20221;-83
2022/07/14 08:24:11;;;;;;;1.85;0.70;;;25.30;74.80;;;;;;5007170;28;20240;-82
2022/07/14 08:26:40;;;;;;;2.28;0.68;;;25.70;74.60;;;;;;5012787;28;20229;-83
2022/07/14 08:29:06;;;;;;;3.45;0.73;;;26.20;74.00;;;;;;5012363;28;20635;-82
2022/07/14 08:31:33;;;;;;;1.58;0.63;;;26.60;72.70;;;;;;4993275;28;20584;-83
2022/07/14 08:34:00;;;;;;;2.50;0.75;;;26.90;70.70;;;;;;4987679;28;20227;-83
2022/07/14 08:36:27;;;;;;;1.90;0.60;;;27.00;68.20;;;;;;5007383;28;20603;-82
2022/07/14 08:38:54;;;;;;;2.63;0.88;;;26.80;67.10;;;;;;5007367;28;20217;-82
2022/07/14 08:41:20;;;;;;;1.60;0.70;;;26.40;66.60;;;;;;5009965;28;20341;-82
2022/07/14 08:43:51;;;;;;;2.33;0.65;;;25.90;66.50;;;;;;4988154;28;20241;-83
2022/07/14 08:46:18;;;;;;;2.47;0.70;;;25.50;66.80;;;;;;5027933;28;20217;-83
2022/07/14 08:48:46;;;;;;;3.45;0.82;;;25.30;68.30;;;;;;5012571;28;20257;-83
2022/07/14 08:51:13;;;;;;;2.25;0.90;;;25.30;68.70;;;;;;5009486;28;20240;-83
2022/07/14 08:53:40;;;;;;;2.70;0.80;;;25.50;67.50;;;;;;5019066;28;20288;-83
2022/07/14 08:56:07;;;;;;;1.70;0.60;;;25.80;67.50;;;;;;4990092;28;20221;-82
2022/07/14 08:58:34;;;;;;;1.65;0.52;;;26.10;66.80;;;;;;4994455;28;20225;-82
2022/07/14 09:01:02;;;;;;;3.47;0.82;;;26.50;67.10;;;;;;4999989;28;20253;-83
2022/07/14 09:03:32;;;;;;;1.95;0.60;;;26.80;66.70;;;;;;5010068;28;20233;-82
2022/07/14 09:05:58;;;;;;;2.47;0.85;;;27.30;65.30;;;;;;5006663;28;20243;-83
2022/07/14 09:08:25;;;;;;;2.67;0.80;;;27.70;65.50;;;;;;5011599;28;20225;-82
2022/07/14 09:10:52;;;;;;;3.00;0.85;;;28.00;63.20;;;;;;5009641;28;20225;-83
2022/07/14 09:13:20;;;;;;;3.05;0.63;;;28.30;62.80;;;;;;4999209;28;20293;-82
2022/07/14 09:15:48;;;;;;;3.38;1.00;;;28.30;60.60;;;;;;5010968;28;20229;-82
2022/07/14 09:18:24;;;;;;;1.83;0.50;;;28.30;60.30;;;;;;4991107;28;20255;-82
2022/07/14 09:20:52;;;;;;;2.63;0.68;;;28.20;59.00;;;;;;5009950;28;20243;-83
2022/07/14 09:23:27;;;;;;;2.70;0.68;;;28.20;59.20;;;;;;4999910;28;20237;-82
2022/07/14 09:26:10;;;;;;;1.58;0.47;;;28.30;58.50;;;;;;5005011;28;20213;-83
2022/07/14 09:28:40;;;;;;;1.85;0.70;;;28.50;58.60;;;;;;5004906;28;20708;-82
2022/07/14 09:31:21;;;;;;;2.38;0.57;;;28.70;56.40;;;;;;5014159;28;20229;-83
2022/07/14 09:33:50;;;;;;;3.53;0.82;;;28.90;57.40;;;;;;4995749;28;20224;-82
2022/07/14 09:36:26;;;;;;;2.47;0.80;;;29.00;56.90;;;;;;4989810;28;20304;-82
2022/07/14 09:38:53;;;;;;;0.85;0.43;;;29.00;56.00;;;;;;4991699;28;20732;-83
2022/07/14 09:41:20;;;;;;;2.92;0.60;;;28.80;55.80;;;;;;5001005;28;20232;-83
2022/07/14 09:44:07;;;;;;;0.90;0.57;;;28.60;53.40;;;;;;4999810;28;20667;-83
2022/07/14 09:46:45;;;;;;;2.25;0.47;;;28.50;53.80;;;;;;4992870;28;20295;-83
2022/07/14 09:49:13;;;;;;;1.15;0.50;;;28.60;54.00;;;;;;5009047;28;20478;-83
2022/07/14 09:51:54;;;;;;;3.10;0.50;;;28.70;53.10;;;;;;5011220;28;20548;-82
2022/07/14 09:54:45;;;;;;;1.17;0.47;;;29.00;53.20;;;;;;5010754;28;20308;-82
2022/07/14 09:57:26;;;;;;;1.60;0.60;;;29.20;52.90;;;;;;4990471;28;20259;-82
2022/07/14 09:59:56;;;;;;;3.05;0.80;;;29.40;52.80;;;;;;5004880;28;20225;-82
2022/07/14 10:02:26;;;;;;;1.58;0.50;;;29.40;52.10;;;;;;4997803;28;20377;-82
2022/07/14 10:04:58;;;;;;;1.48;0.50;;;29.20;52.10;;;;;;5004900;28;20537;-82
2022/07/14 10:07:25;;;;;;;1.55;0.60;;;29.00;51.60;;;;;;4992303;28;20290;-82
2022/07/14 10:10:00;;;;;;;1.55;0.63;;;28.80;52.00;;;;;;5004102;28;20229;-82
2022/07/14 10:12:28;;;;;;;3.97;0.38;;;28.60;50.90;;;;;;5010936;28;20754;-82
2022/07/14 10:14:59;;;;;;;0.77;0.38;;;28.30;50.90;;;;;;4994241;28;20232;-82
2022/07/14 10:17:28;;;;;;;1.95;0.52;;;28.10;51.30;;;;;;4994621;28;20252;-82
2022/07/14 10:19:56;;;;;;;2.53;0.40;;;27.80;50.90;;;;;;4988235;28;20217;-82
2022/07/14 10:22:24;;;;;;;3.15;0.63;;;27.50;50.20;;;;;;5012115;28;20225;-82
2022/07/14 10:24:51;;;;;;;1.55;0.63;;;27.30;50.60;;;;;;5009330;28;20240;-82
2022/07/14 10:27:19;;;;;;;1.50;0.80;;;27.20;51.50;;;;;;5012065;28;20395;-82
2022/07/14 10:29:50;;;;;;;2.42;0.73;;;27.00;51.10;;;;;;5015627;28;20233;-82
2022/07/14 10:32:26;;;;;;;1.67;0.40;;;26.90;52.20;;;;;;5012714;28;20233;-82
2022/07/14 10:35:03;;;;;;;1.67;0.40;;;26.80;52.50;;;;;;4987631;28;20263;-82
2022/07/14 10:37:36;;;;;;;2.95;0.93;;;26.70;52.40;;;;;;4991920;28;20587;-83
2022/07/14 10:40:13;;;;;;;3.63;0.70;;;26.50;52.70;;;;;;4981263;28;20779;-82
2022/07/14 10:42:52;;;;;;;1.90;0.70;;;26.40;52.90;;;;;;5004964;28;20225;-82
2022/07/14 10:45:19;;;;;;;2.50;0.60;;;26.30;52.30;;;;;;4999934;28;20225;-82
2022/07/14 10:47:49;;;;;;;1.63;0.65;;;26.30;52.90;;;;;;5023030;28;20925;-82
2022/07/14 10:50:22;;;;;;;2.22;0.70;;;26.30;53.40;;;;;;5003536;28;20217;-82
2022/07/14 10:53:05;;;;;;;4.65;0.82;;;26.30;53.50;;;;;;4989413;28;20766;-82
2022/07/14 10:55:40;;;;;;;2.72;0.60;;;26.20;53.80;;;;;;5001387;28;20256;-82
2022/07/14 10:58:29;;;;;;;1.42;0.45;;;26.20;54.30;;;;;;5009892;28;20224;-82
2022/07/14 11:00:58;;;;;;;1.98;0.57;;;26.30;54.30;;;;;;5003668;28;20293;-82
2022/07/14 11:03:49;;;;;;;1.95;0.50;;;26.50;54.40;;;;;;5020050;28;20241;-82
2022/07/14 11:06:21;;;;;;;2.28;0.57;;;26.50;54.20;;;;;;5022937;28;20218;-82
2022/07/14 11:09:40;;;;;;;1.35;0.60;;;26.60;54.30;;;;;;5006745;28;20222;-82
2022/07/14 11:12:14;;;;;;;2.50;1.20;;;26.50;54.60;;;;;;5006594;28;20320;-83
2022/07/14 11:14:42;;;;;;;2.92;0.93;;;26.50;54.60;;;;;;5005957;28;20363;-82
2022/07/14 11:17:29;;;;;;;1.90;0.57;;;26.50;54.80;;;;;;4984205;28;20430;-82
2022/07/14 11:19:56;;;;;;;1.90;0.50;;;26.40;54.50;;;;;;5009192;28;20221;-83
2022/07/14 11:22:25;;;;;;;2.17;0.50;;;26.40;55.40;;;;;;5014733;28;20713;-82
2022/07/14 11:24:54;;;;;;;2.63;0.70;;;26.40;54.30;;;;;;5004189;28;20316;-83
2022/07/14 11:27:48;;;;;;;3.40;0.90;;;26.30;54.50;;;;;;5014199;28;20212;-82
2022/07/14 11:30:19;;;;;;;4.30;0.93;;;26.10;55.10;;;;;;5015773;28;20245;-82
2022/07/14 11:32:46;;;;;;;1.90;0.70;;;26.00;55.10;;;;;;5015043;28;20229;-83
2022/07/14 11:38:01;;;;;;;2.20;0.70;;;25.70;55.00;;;;;;5014030;28;20217;-82
2022/07/14 11:40:43;;;;;;;2.50;0.85;;;25.50;55.30;;;;;;5009054;28;20624;-82
2022/07/14 11:43:41;;;;;;;2.17;0.70;;;25.30;55.30;;;;;;4992289;28;20849;-81
2022/07/14 11:46:09;;;;;;;1.88;0.75;;;24.90;55.40;;;;;;5007728;28;20226;-82
2022/07/14 11:48:37;;;;;;;3.33;0.70;;;24.70;56.00;;;;;;5014587;28;20344;-82
2022/07/14 11:51:06;;;;;;;4.82;0.75;;;24.50;56.60;;;;;;4993750;28;20615;-82
2022/07/14 11:53:35;;;;;;;2.22;0.70;;;24.50;57.30;;;;;;5014145;28;20225;-82
2022/07/14 11:56:03;;;;;;;2.33;0.60;;;24.50;57.30;;;;;;4990033;28;20327;-82
2022/07/14 11:58:31;;;;;;;2.42;0.73;;;24.50;57.50;;;;;;4997859;28;20383;-82
2022/07/14 12:01:01;;;;;;;1.83;0.70;;;24.50;57.20;;;;;;5005485;28;20648;-82
2022/07/14 12:03:28;;;;;;;3.10;0.68;;;24.50;57.00;;;;;;5013038;28;20759;-82
2022/07/14 12:05:58;;;;;;;1.65;0.50;;;24.60;56.20;;;;;;4991081;28;20614;-82
2022/07/14 12:08:26;;;;;;;2.33;0.73;;;24.60;56.40;;;;;;4994243;28;20231;-82
2022/07/14 12:10:54;;;;;;;1.27;0.55;;;24.50;56.50;;;;;;5018627;28;20289;-82
2022/07/14 12:13:21;;;;;;;3.38;1.00;;;24.40;56.70;;;;;;4996599;28;20233;-82
2022/07/14 12:15:48;;;;;;;5.00;1.05;;;24.40;57.20;;;;;;5014963;28;20221;-82
2022/07/14 12:18:15;;;;;;;2.65;0.80;;;24.30;57.60;;;;;;4992051;28;20240;-82
2022/07/14 12:20:44;;;;;;;1.98;0.60;;;24.20;57.70;;;;;;4998319;28;20228;-82
2022/07/14 12:23:11;;;;;;;1.38;0.60;;;24.10;58.30;;;;;;4998578;28;20225;-82
2022/07/14 12:25:40;;;;;;;4.40;0.60;;;23.90;58.50;;;;;;5011320;28;20608;-82
2022/07/14 12:28:10;;;;;;;4.80;0.90;;;23.80;59.10;;;;;;4996477;28;20271;-82
2022/07/14 12:30:45;;;;;;;3.70;0.50;;;23.70;59.00;;;;;;5010793;28;20305;-82
2022/07/14 12:33:14;;;;;;;1.20;0.50;;;23.50;59.50;;;;;;5012532;28;20216;-82
2022/07/14 12:35:43;;;;;;;2.03;0.60;;;23.50;59.30;;;;;;4993982;28;20977;-82
2022/07/14 12:38:12;;;;;;;2.60;0.70;;;23.30;59.30;;;;;;5018279;28;20303;-82
2022/07/14 12:40:40;;;;;;;2.95;0.77;;;23.30;59.70;;;;;;4992667;28;20250;-82
2022/07/14 12:43:09;;;;;;;2.42;0.60;;;23.20;59.70;;;;;;5006827;28;20248;-82
2022/07/14 12:46:02;;;;;;;3.22;0.60;;;23.20;59.90;;;;;;5012576;28;20221;-82
2022/07/14 12:48:29;;;;;;;1.33;0.40;;;23.10;59.90;;;;;;5011107;28;20221;-82
2022/07/14 12:50:56;;;;;;;2.47;0.60;;;23.10;59.20;;;;;;5010140;28;20225;-82
2022/07/14 12:53:23;;;;;;;1.27;0.60;;;23.00;59.30;;;;;;5008540;28;20234;-82
2022/07/14 12:55:59;;;;;;;2.10;0.60;;;22.90;59.30;;;;;;4987253;28;20236;-82
2022/07/14 12:58:28;;;;;;;0.80;0.32;;;22.80;58.90;;;;;;5011712;28;20239;-82
2022/07/14 13:00:56;;;;;;;1.85;0.50;;;22.70;59.00;;;;;;5011760;28;20209;-82
2022/07/14 13:03:22;;;;;;;1.30;0.45;;;22.70;58.80;;;;;;4996899;28;20222;-82
2022/07/14 13:05:57;;;;;;;2.00;0.50;;;22.60;58.90;;;;;;4997006;28;20869;-82
2022/07/14 13:08:44;;;;;;;1.30;0.35;;;22.50;58.80;;;;;;5011223;28;20228;-82
2022/07/14 13:11:12;;;;;;;1.20;0.43;;;22.60;58.30;;;;;;5007345;28;20339;-82